createdAt,value
2023-05-10T05:03:04.179Z,25.00
2023-05-10T05:04:05.082Z,25.00
2023-05-10T05:05:05.117Z,25.00
2023-05-10T05:06:05.114Z,25.00
2023-05-10T05:07:04.174Z,25.00
2023-05-10T05:08:05.192Z,25.00
2023-05-10T05:09:05.207Z,0.00
2023-05-10T05:10:05.261Z,0.00
2023-05-10T05:11:04.327Z,0.00
2023-05-10T05:12:05.363Z,0.00
2023-05-10T05:13:04.431Z,0.00
2023-05-10T05:14:04.415Z,0.00
2023-05-10T05:15:04.498Z,0.00
2023-05-10T05:16:04.533Z,0.00
2023-05-10T05:17:04.486Z,0.00
2023-05-10T05:18:05.634Z,0.00
2023-05-10T05:19:04.560Z,0.00
2023-05-10T05:20:04.598Z,0.00
2023-05-10T05:21:05.595Z,0.00
2023-05-10T05:22:04.605Z,0.00
2023-05-10T05:23:05.657Z,0.00
2023-05-10T05:24:05.670Z,0.00
2023-05-10T05:25:04.710Z,0.00
2023-05-10T05:26:05.743Z,15.78
2023-05-10T05:27:05.722Z,25.00
2023-05-10T05:28:04.733Z,25.00
2023-05-10T05:29:04.745Z,23.57
2023-05-10T05:30:05.764Z,25.21
2023-05-10T05:31:04.795Z,25.00
2023-05-10T05:32:04.871Z,26.95
2023-05-10T05:33:05.875Z,25.51
2023-05-10T05:34:04.884Z,27.10
2023-05-10T05:35:04.846Z,25.19
2023-05-10T05:36:05.900Z,26.23
2023-05-10T05:37:04.892Z,24.55
2023-05-10T05:38:05.894Z,26.71
2023-05-10T05:39:04.921Z,27.38
2023-05-10T05:40:05.927Z,26.68
2023-05-10T05:41:05.948Z,25.56
2023-05-10T05:42:04.958Z,26.68
2023-05-10T05:43:04.980Z,26.59
2023-05-10T05:44:05.991Z,26.56
2023-05-10T05:45:06.007Z,24.82
2023-05-10T05:46:06.099Z,27.61
2023-05-10T05:47:06.026Z,25.94
2023-05-10T05:48:06.090Z,25.00
2023-05-10T05:49:06.066Z,28.19
2023-05-10T05:50:05.111Z,27.31
2023-05-10T05:51:07.384Z,26.45
2023-05-10T05:52:05.105Z,25.00
2023-05-10T05:53:06.112Z,29.91
2023-05-10T05:54:06.137Z,32.72
2023-05-10T05:55:06.142Z,29.41
2023-05-10T05:56:06.174Z,25.00
2023-05-10T05:57:05.186Z,28.13
2023-05-10T05:58:05.198Z,27.10
2023-05-10T05:59:05.271Z,27.17
2023-05-10T06:00:06.221Z,28.03
2023-05-10T06:01:06.229Z,25.54
2023-05-10T06:02:06.760Z,26.47
2023-05-10T06:03:06.305Z,25.74
2023-05-10T06:04:06.345Z,27.71
2023-05-10T06:05:05.289Z,27.71
2023-05-10T06:06:05.317Z,28.14
2023-05-10T06:07:05.313Z,30.52
2023-05-10T06:08:06.312Z,31.21
2023-05-10T06:09:06.320Z,32.05
2023-05-10T06:10:05.318Z,32.17
2023-05-10T06:11:06.353Z,36.56
2023-05-10T06:12:05.424Z,36.71
2023-05-10T06:13:06.485Z,36.04
2023-05-10T06:14:06.530Z,39.73
2023-05-10T06:15:06.610Z,42.37
2023-05-10T06:16:05.630Z,42.52
2023-05-10T06:17:05.728Z,40.34
2023-05-10T06:18:06.830Z,43.62
2023-05-10T06:19:06.814Z,41.90
2023-05-10T06:20:05.863Z,44.90
2023-05-10T06:21:06.920Z,45.36
2023-05-10T06:22:06.291Z,43.23
2023-05-10T06:23:06.043Z,44.00
2023-05-10T06:24:07.099Z,46.25
2023-05-10T06:25:07.141Z,47.44
2023-05-10T06:26:07.184Z,48.31
2023-05-10T06:27:06.234Z,58.10
2023-05-10T06:28:06.286Z,61.37
2023-05-10T06:29:07.321Z,60.35
2023-05-10T06:30:13.054Z,58.74
2023-05-10T06:31:07.389Z,58.98
2023-05-10T06:32:07.465Z,59.76
2023-05-10T06:33:07.374Z,60.51
2023-05-10T06:34:07.328Z,61.25
2023-05-10T06:35:06.329Z,60.39
2023-05-10T06:36:06.322Z,59.27
2023-05-10T06:37:07.323Z,57.55
2023-05-10T06:38:07.432Z,57.16
2023-05-10T06:39:06.314Z,57.41
2023-05-10T06:40:07.302Z,64.31
2023-05-10T06:41:07.293Z,63.69
2023-05-10T06:42:07.307Z,63.73
2023-05-10T06:43:07.377Z,59.91
2023-05-10T06:44:07.267Z,61.48
2023-05-10T06:45:07.269Z,63.96
2023-05-10T06:46:06.306Z,63.43
2023-05-10T06:47:07.249Z,61.74
2023-05-10T06:48:06.278Z,64.00
2023-05-10T06:49:07.259Z,64.29
2023-05-10T06:50:07.338Z,63.12
2023-05-10T06:51:06.219Z,61.90
2023-05-10T06:52:06.268Z,62.74
2023-05-10T06:53:07.758Z,62.93
2023-05-10T06:54:07.250Z,62.56
2023-05-10T06:55:07.225Z,62.68
2023-05-10T06:56:06.187Z,67.74
2023-05-10T06:57:13.093Z,63.15
2023-05-10T06:58:07.164Z,63.36
2023-05-10T06:59:07.230Z,63.51
2023-05-10T07:00:06.265Z,64.80
2023-05-10T07:01:06.252Z,67.27
2023-05-10T07:02:07.168Z,66.91
2023-05-10T07:03:07.194Z,69.92
2023-05-10T07:04:07.148Z,67.41
2023-05-10T07:05:07.120Z,66.41
2023-05-10T07:06:07.770Z,66.01
2023-05-10T07:07:07.112Z,65.97
2023-05-10T07:08:06.123Z,66.44
2023-05-10T07:09:07.133Z,66.15
2023-05-10T07:10:06.119Z,67.06
2023-05-10T07:11:06.084Z,73.10
2023-05-10T07:12:07.864Z,73.58
2023-05-10T07:13:07.258Z,74.92
2023-05-10T07:14:07.214Z,76.25
2023-05-10T07:15:06.224Z,77.20
2023-05-10T07:16:07.306Z,76.63
2023-05-10T07:17:07.315Z,77.22
2023-05-10T07:18:07.595Z,78.48
2023-05-10T07:19:06.381Z,80.27
2023-05-10T07:20:06.372Z,81.41
2023-05-10T07:21:06.418Z,80.35
2023-05-10T07:22:06.387Z,77.03
2023-05-10T07:23:06.371Z,77.77
2023-05-10T07:24:07.398Z,73.18
2023-05-10T07:25:07.497Z,76.71
2023-05-10T07:26:07.436Z,77.80
2023-05-10T07:27:06.435Z,76.08
2023-05-10T07:28:07.439Z,78.29
2023-05-10T07:29:06.690Z,75.68
2023-05-10T07:30:07.472Z,74.42
2023-05-10T07:31:07.514Z,75.35
2023-05-10T07:32:07.565Z,69.79
2023-05-10T07:33:07.589Z,73.77
2023-05-10T07:34:07.521Z,74.80
2023-05-10T07:35:07.534Z,77.77
2023-05-10T07:36:07.554Z,74.43
2023-05-10T07:37:06.595Z,77.93
2023-05-10T07:38:06.594Z,78.90
2023-05-10T07:39:07.632Z,76.89
2023-05-10T07:40:06.656Z,78.14
2023-05-10T07:41:06.741Z,79.85
2023-05-10T07:42:07.735Z,77.29
2023-05-10T07:43:07.749Z,76.39
2023-05-10T07:44:07.786Z,74.88
2023-05-10T07:45:06.829Z,69.67
2023-05-10T07:46:07.933Z,69.00
2023-05-10T07:47:07.281Z,67.83
2023-05-10T07:48:07.990Z,66.65
2023-05-10T07:49:08.036Z,65.06
2023-05-10T07:50:08.089Z,63.29
2023-05-10T07:51:08.123Z,63.92
2023-05-10T07:52:08.305Z,66.24
2023-05-10T07:53:08.249Z,61.37
2023-05-10T07:54:08.258Z,58.43
2023-05-10T07:55:07.431Z,58.52
2023-05-10T07:56:08.443Z,60.75
2023-05-10T07:57:08.476Z,55.78
2023-05-10T07:58:07.498Z,51.99
2023-05-10T07:59:09.759Z,55.23
2023-05-10T08:00:07.539Z,60.23
2023-05-10T08:01:08.537Z,56.82
2023-05-10T08:02:07.592Z,58.65
2023-05-10T08:03:08.765Z,54.57
2023-05-10T08:04:08.708Z,57.10
2023-05-10T08:05:08.500Z,59.85
2023-05-10T08:06:07.479Z,58.62
2023-05-10T08:07:08.489Z,53.57
2023-05-10T08:08:07.482Z,57.52
2023-05-10T08:09:07.462Z,59.51
2023-05-10T08:10:07.469Z,56.93
2023-05-10T08:11:07.525Z,55.02
2023-05-10T08:12:08.455Z,56.22
2023-05-10T08:13:07.460Z,54.29
2023-05-10T08:14:07.429Z,52.32
2023-05-10T08:15:07.425Z,49.27
2023-05-10T08:16:07.418Z,47.68
2023-05-10T08:17:08.416Z,48.77
2023-05-10T08:18:08.410Z,45.04
2023-05-10T08:19:08.413Z,43.25
2023-05-10T08:20:07.374Z,41.81
2023-05-10T08:21:07.359Z,42.46
2023-05-10T08:22:07.368Z,42.08
2023-05-10T08:23:07.355Z,45.17
2023-05-10T08:24:08.351Z,42.25
2023-05-10T08:25:08.336Z,42.50
2023-05-10T08:26:07.354Z,36.64
2023-05-10T08:27:07.329Z,39.86
2023-05-10T08:28:08.077Z,37.33
2023-05-10T08:29:07.374Z,38.05
2023-05-10T08:30:08.301Z,35.93
2023-05-10T08:31:08.328Z,33.66
2023-05-10T08:32:08.277Z,32.61
2023-05-10T08:33:07.326Z,25.38
2023-05-10T08:34:08.259Z,26.72
2023-05-10T08:35:08.280Z,25.00
2023-05-10T08:36:07.298Z,30.19
2023-05-10T08:37:07.301Z,29.45
2023-05-10T08:38:08.326Z,29.00
2023-05-10T08:39:16.195Z,28.06
2023-05-10T08:40:08.371Z,28.20
2023-05-10T08:41:08.360Z,28.33
2023-05-10T08:42:07.326Z,28.12
2023-05-10T08:43:07.796Z,23.23
2023-05-10T08:44:08.303Z,26.69
2023-05-10T08:45:08.342Z,25.45
2023-05-10T08:46:08.417Z,25.54
2023-05-10T08:47:07.503Z,29.10
2023-05-10T08:48:07.367Z,30.57
2023-05-10T08:49:08.272Z,30.70
2023-05-10T08:50:08.273Z,26.75
2023-05-10T08:51:08.268Z,27.78
2023-05-10T08:52:08.293Z,25.00
2023-05-10T08:53:08.306Z,25.36
2023-05-10T08:54:08.238Z,26.99
2023-05-10T08:55:07.236Z,30.13
2023-05-10T08:56:07.232Z,25.00
2023-05-10T08:57:07.222Z,27.20
2023-05-10T08:58:08.324Z,26.57
2023-05-10T08:59:08.212Z,26.67
2023-05-10T09:00:07.208Z,28.71
2023-05-10T09:01:07.271Z,29.38
2023-05-10T09:02:07.198Z,27.18
2023-05-10T09:03:08.253Z,28.38
2023-05-10T09:04:07.283Z,26.58
2023-05-10T09:05:08.221Z,26.40
2023-05-10T09:06:08.161Z,26.61
2023-05-10T09:07:08.154Z,29.37
2023-05-10T09:08:08.147Z,28.06
2023-05-10T09:09:07.127Z,28.87
2023-05-10T09:10:08.128Z,24.91
2023-05-10T09:11:07.121Z,29.31
2023-05-10T09:12:07.108Z,30.01
2023-05-10T09:13:08.119Z,26.91
2023-05-10T09:14:08.108Z,28.62
2023-05-10T09:15:08.096Z,27.46
2023-05-10T09:16:20.571Z,25.84
2023-05-10T09:17:08.159Z,26.21
2023-05-10T09:18:08.109Z,26.70
2023-05-10T09:19:08.247Z,27.92
2023-05-10T09:20:08.039Z,26.49
2023-05-10T09:21:08.061Z,29.12
2023-05-10T09:22:07.035Z,27.64
2023-05-10T09:23:07.071Z,30.39
2023-05-10T09:24:07.047Z,30.84
2023-05-10T09:25:08.024Z,30.34
2023-05-10T09:26:08.012Z,28.97
2023-05-10T09:27:08.012Z,29.75
2023-05-10T09:28:08.007Z,33.16
2023-05-10T09:29:06.989Z,29.97
2023-05-10T09:30:07.986Z,26.79
2023-05-10T09:31:08.002Z,27.24
2023-05-10T09:32:07.967Z,26.59
2023-05-10T09:33:07.010Z,28.91
2023-05-10T09:34:07.940Z,27.05
2023-05-10T09:35:06.936Z,28.44
2023-05-10T09:36:07.933Z,26.19
2023-05-10T09:37:07.941Z,25.00
2023-05-10T09:38:07.919Z,28.24
2023-05-10T09:39:07.917Z,30.24
2023-05-10T09:40:07.944Z,29.05
2023-05-10T09:41:08.007Z,26.15
2023-05-10T09:42:08.068Z,25.00
2023-05-10T09:43:08.170Z,31.70
2023-05-10T09:44:07.199Z,27.33
2023-05-10T09:45:08.263Z,25.26
2023-05-10T09:46:07.393Z,29.27
2023-05-10T09:47:08.404Z,28.01
2023-05-10T09:48:08.861Z,25.00
2023-05-10T09:49:08.529Z,30.47
2023-05-10T09:50:08.568Z,25.66
2023-05-10T09:51:07.624Z,26.84
2023-05-10T09:52:07.671Z,31.20
2023-05-10T09:53:08.819Z,31.81
2023-05-10T09:54:08.795Z,32.04
2023-05-10T09:55:08.828Z,30.17
2023-05-10T09:56:07.908Z,31.73
2023-05-10T09:57:08.992Z,28.49
2023-05-10T09:58:08.070Z,32.75
2023-05-10T09:59:09.076Z,29.57
2023-05-10T10:00:09.143Z,27.33
2023-05-10T10:01:09.242Z,25.15
2023-05-10T10:02:09.211Z,26.73
2023-05-10T10:03:09.296Z,26.01
2023-05-10T10:04:09.360Z,28.38
2023-05-10T10:05:08.445Z,26.77
2023-05-10T10:06:18.896Z,28.83
2023-05-10T10:07:09.406Z,29.07
2023-05-10T10:08:08.379Z,28.77
2023-05-10T10:09:09.395Z,28.89
2023-05-10T10:10:08.356Z,26.08
2023-05-10T10:11:08.343Z,24.44
2023-05-10T10:12:09.333Z,28.21
2023-05-10T10:13:09.343Z,31.02
2023-05-10T10:14:09.385Z,30.59
2023-05-10T10:15:09.414Z,30.85
2023-05-10T10:16:09.400Z,30.11
2023-05-10T10:17:09.386Z,31.19
2023-05-10T10:18:08.462Z,32.68
2023-05-10T10:19:08.460Z,32.80
2023-05-10T10:20:11.136Z,32.92
2023-05-10T10:21:08.549Z,30.14
2023-05-10T10:22:09.507Z,35.08
2023-05-10T10:23:09.523Z,31.42
2023-05-10T10:24:09.503Z,30.49
2023-05-10T10:25:08.490Z,27.06
2023-05-10T10:26:08.488Z,28.92
2023-05-10T10:27:09.480Z,30.19
2023-05-10T10:28:08.487Z,28.29
2023-05-10T10:29:09.461Z,25.00
2023-05-10T10:30:09.444Z,26.43
2023-05-10T10:31:09.477Z,28.25
2023-05-10T10:32:10.482Z,25.72
2023-05-10T10:33:16.843Z,29.29
2023-05-10T10:34:09.434Z,29.46
2023-05-10T10:35:08.447Z,29.36
2023-05-10T10:36:09.393Z,29.22
2023-05-10T10:37:09.444Z,28.71
2023-05-10T10:38:09.411Z,28.88
2023-05-10T10:39:08.382Z,32.43
2023-05-10T10:40:09.377Z,33.14
2023-05-10T10:41:09.355Z,31.30
2023-05-10T10:42:08.355Z,32.47
2023-05-10T10:43:09.392Z,33.32
2023-05-10T10:44:09.848Z,39.79
2023-05-10T10:45:09.502Z,39.65
2023-05-10T10:46:08.558Z,38.51
2023-05-10T10:47:08.686Z,38.19
2023-05-10T10:48:09.743Z,41.96
2023-05-10T10:49:09.699Z,38.17
2023-05-10T10:50:08.785Z,41.63
2023-05-10T10:51:12.248Z,45.40
2023-05-10T10:52:08.816Z,45.47
2023-05-10T10:53:08.863Z,45.08
2023-05-10T10:54:08.794Z,45.49
2023-05-10T10:55:08.791Z,45.84
2023-05-10T10:56:08.813Z,45.66
2023-05-10T10:57:08.771Z,49.67
2023-05-10T10:58:09.794Z,51.21
2023-05-10T10:59:09.766Z,53.98
2023-05-10T11:00:08.751Z,53.31
2023-05-10T11:01:09.804Z,55.32
2023-05-10T11:02:09.749Z,56.59
2023-05-10T11:03:09.781Z,59.10
2023-05-10T11:04:08.797Z,58.38
2023-05-10T11:05:08.720Z,62.33
2023-05-10T11:06:09.738Z,64.23
2023-05-10T11:07:09.703Z,67.03
2023-05-10T11:08:08.698Z,63.61
2023-05-10T11:09:09.733Z,66.21
2023-05-10T11:10:08.679Z,66.59
2023-05-10T11:11:08.689Z,70.20
2023-05-10T11:12:09.663Z,72.01
2023-05-10T11:13:09.653Z,72.30
2023-05-10T11:14:09.659Z,74.57
2023-05-10T11:15:08.640Z,73.62
2023-05-10T11:16:09.647Z,79.83
2023-05-10T11:17:08.798Z,75.24
2023-05-10T11:18:08.631Z,73.65
2023-05-10T11:19:09.822Z,71.54
2023-05-10T11:20:09.612Z,74.04
2023-05-10T11:21:08.588Z,73.91
2023-05-10T11:22:08.585Z,75.32
2023-05-10T11:23:08.578Z,76.75
2023-05-10T11:24:09.624Z,75.08
2023-05-10T11:25:09.600Z,76.25
2023-05-10T11:26:08.583Z,76.18
2023-05-10T11:27:09.598Z,76.94
2023-05-10T11:28:08.533Z,78.05
2023-05-10T11:29:09.546Z,81.58
2023-05-10T11:30:08.536Z,78.62
2023-05-10T11:31:08.550Z,79.56
2023-05-10T11:32:08.582Z,79.04
2023-05-10T11:33:08.541Z,80.94
2023-05-10T11:34:09.530Z,77.01
2023-05-10T11:35:09.487Z,81.96
2023-05-10T11:36:08.477Z,81.29
2023-05-10T11:37:08.545Z,81.57
2023-05-10T11:38:12.501Z,83.45
2023-05-10T11:39:08.882Z,83.51
2023-05-10T11:40:08.465Z,81.60
2023-05-10T11:41:08.497Z,78.40
2023-05-10T11:42:08.546Z,72.71
2023-05-10T11:43:09.494Z,72.58
2023-05-10T11:44:09.506Z,70.15
2023-05-10T11:45:09.453Z,66.07
2023-05-10T11:46:09.477Z,57.81
2023-05-10T11:47:09.407Z,56.95
2023-05-10T11:48:08.445Z,55.20
2023-05-10T11:49:09.401Z,57.96
2023-05-10T11:50:09.429Z,50.13
2023-05-10T11:51:09.397Z,47.21
2023-05-10T11:52:08.422Z,50.56
2023-05-10T11:53:08.368Z,48.15
2023-05-10T11:54:09.362Z,47.84
2023-05-10T11:55:08.383Z,48.47
2023-05-10T11:56:09.366Z,47.25
2023-05-10T11:57:09.379Z,49.29
2023-05-10T11:58:09.315Z,47.76
2023-05-10T11:59:09.507Z,48.14
2023-05-10T12:00:09.306Z,43.63
2023-05-10T12:01:09.353Z,44.12
2023-05-10T12:02:09.299Z,40.07
2023-05-10T12:03:09.351Z,38.28
2023-05-10T12:04:09.546Z,41.80
2023-05-10T12:05:09.322Z,43.63
2023-05-10T12:06:09.365Z,51.65
2023-05-10T12:07:09.355Z,66.51
2023-05-10T12:08:08.265Z,74.38
2023-05-10T12:09:09.409Z,71.55
2023-05-10T12:10:09.222Z,73.52
2023-05-10T12:11:09.291Z,75.20
2023-05-10T12:12:09.301Z,76.63
2023-05-10T12:13:09.318Z,79.64
2023-05-10T12:14:08.276Z,81.26
2023-05-10T12:15:08.296Z,83.57
2023-05-10T12:16:09.323Z,85.22
2023-05-10T12:17:09.338Z,85.30
2023-05-10T12:18:09.389Z,86.70
2023-05-10T12:19:09.443Z,86.60
2023-05-10T12:20:08.397Z,89.81
2023-05-10T12:21:09.409Z,87.31
2023-05-10T12:22:09.449Z,95.78
2023-05-10T12:23:09.447Z,104.34
2023-05-10T12:24:09.492Z,103.88
2023-05-10T12:25:09.908Z,99.15
2023-05-10T12:26:08.465Z,106.13
2023-05-10T12:27:08.490Z,106.99
2023-05-10T12:28:09.502Z,107.19
2023-05-10T12:29:09.520Z,214.44
2023-05-10T12:30:09.503Z,223.15
2023-05-10T12:31:09.558Z,181.04
2023-05-10T12:32:08.615Z,152.30
2023-05-10T12:33:08.587Z,144.23
2023-05-10T12:34:09.576Z,138.37
2023-05-10T12:35:09.597Z,127.38
2023-05-10T12:36:09.595Z,126.64
2023-05-10T12:37:08.652Z,128.67
2023-05-10T12:38:08.633Z,133.57
2023-05-10T12:39:09.637Z,128.81
2023-05-10T12:40:09.653Z,132.31
2023-05-10T12:41:09.673Z,131.38
2023-05-10T12:42:09.636Z,125.98
2023-05-10T12:43:09.636Z,124.32
2023-05-10T12:44:08.650Z,126.22
2023-05-10T12:45:09.683Z,124.11
2023-05-10T12:46:09.830Z,122.84
2023-05-10T12:47:08.705Z,122.14
2023-05-10T12:48:09.696Z,122.30
2023-05-10T12:49:09.979Z,119.67
2023-05-10T12:50:08.663Z,118.09
2023-05-10T12:51:08.667Z,121.34
2023-05-10T12:52:09.669Z,121.39
2023-05-10T12:53:09.666Z,118.88
2023-05-10T12:54:09.713Z,117.54
2023-05-10T12:55:09.667Z,121.69
2023-05-10T12:56:08.693Z,119.75
2023-05-10T12:57:08.661Z,117.93
2023-05-10T12:58:08.667Z,116.99
2023-05-10T12:59:08.685Z,113.94
2023-05-10T13:00:09.702Z,111.29
2023-05-10T13:01:08.745Z,111.44
2023-05-10T13:02:08.683Z,110.66
2023-05-10T13:03:09.749Z,108.57
2023-05-10T13:04:08.883Z,110.03
2023-05-10T13:05:08.875Z,110.20
2023-05-10T13:06:09.755Z,109.35
2023-05-10T13:07:09.701Z,112.42
2023-05-10T13:08:08.734Z,102.02
2023-05-10T13:09:09.746Z,105.13
2023-05-10T13:10:08.901Z,109.14
2023-05-10T13:11:09.740Z,109.28
2023-05-10T13:12:10.139Z,108.96
2023-05-10T13:13:09.791Z,107.98
2023-05-10T13:14:08.761Z,107.72
2023-05-10T13:15:09.736Z,109.25
2023-05-10T13:16:09.747Z,111.90
2023-05-10T13:17:09.918Z,112.97
2023-05-10T13:18:08.777Z,111.20
2023-05-10T13:19:09.832Z,113.61
2023-05-10T13:20:09.798Z,107.90
2023-05-10T13:21:08.777Z,113.55
2023-05-10T13:22:09.766Z,111.94
2023-05-10T13:23:09.781Z,120.28
2023-05-10T13:24:08.784Z,112.60
2023-05-10T13:25:08.788Z,116.00
2023-05-10T13:26:09.768Z,123.73
2023-05-10T13:27:09.794Z,128.28
2023-05-10T13:28:09.778Z,131.70
2023-05-10T13:29:09.789Z,133.23
2023-05-10T13:30:09.849Z,131.53
2023-05-10T13:31:09.802Z,128.45
2023-05-10T13:32:08.781Z,126.14
2023-05-10T13:33:08.988Z,127.55
2023-05-10T13:34:09.762Z,123.85
2023-05-10T13:35:08.775Z,121.26
2023-05-10T13:36:08.798Z,121.19
2023-05-10T13:37:09.774Z,121.23
2023-05-10T13:38:09.764Z,120.96
2023-05-10T13:39:08.757Z,122.20
2023-05-10T13:40:09.859Z,120.27
2023-05-10T13:41:09.790Z,121.69
2023-05-10T13:42:09.831Z,121.80
2023-05-10T13:43:09.828Z,123.04
2023-05-10T13:44:10.129Z,120.06
2023-05-10T13:45:08.920Z,115.67
2023-05-10T13:46:08.837Z,115.74
2023-05-10T13:47:10.011Z,115.88
2023-05-10T13:48:08.929Z,123.76
2023-05-10T13:49:10.108Z,123.09
2023-05-10T13:50:08.905Z,126.84
2023-05-10T13:51:09.885Z,125.99
2023-05-10T13:52:09.898Z,128.17
2023-05-10T13:53:09.930Z,128.81
2023-05-10T13:54:11.341Z,130.90
2023-05-10T13:55:09.873Z,128.30
2023-05-10T13:56:09.863Z,131.14
2023-05-10T13:57:09.872Z,131.46
2023-05-10T13:58:08.853Z,131.60
2023-05-10T13:59:08.859Z,130.74
2023-05-10T14:00:09.868Z,129.52
2023-05-10T14:01:09.847Z,126.33
2023-05-10T14:02:09.906Z,118.43
2023-05-10T14:03:09.865Z,116.25
2023-05-10T14:04:09.003Z,81.84
2023-05-10T14:05:08.841Z,93.24
2023-05-10T14:06:09.794Z,83.80
2023-05-10T14:07:09.781Z,82.94
2023-05-10T14:08:09.794Z,67.87
2023-05-10T14:09:09.782Z,58.91
2023-05-10T14:10:08.779Z,61.35
2023-05-10T14:11:09.763Z,60.99
2023-05-10T14:12:09.768Z,62.04
2023-05-10T14:13:09.767Z,59.54
2023-05-10T14:14:09.754Z,47.21
2023-05-10T14:15:09.739Z,40.33
2023-05-10T14:16:08.760Z,40.47
2023-05-10T14:17:12.244Z,36.33
2023-05-10T14:18:09.794Z,34.88
2023-05-10T14:19:09.767Z,28.05
2023-05-10T14:20:08.696Z,25.33
2023-05-10T14:21:09.715Z,22.68
2023-05-10T14:22:08.718Z,24.76
2023-05-10T14:23:11.780Z,29.53
2023-05-10T14:24:08.678Z,29.84
2023-05-10T14:25:08.706Z,31.45
2023-05-10T14:26:09.711Z,36.72
2023-05-10T14:27:09.671Z,43.58
2023-05-10T14:28:08.706Z,48.30
2023-05-10T14:29:12.152Z,50.84
2023-05-10T14:30:09.634Z,43.61
2023-05-10T14:31:09.619Z,13.84
2023-05-10T14:32:08.707Z,0.00
2023-05-10T14:33:09.627Z,0.00
2023-05-10T14:34:08.592Z,0.00
2023-05-10T14:35:12.192Z,0.00
2023-05-10T14:36:09.583Z,0.00
2023-05-10T14:37:08.615Z,0.00
2023-05-10T14:38:08.578Z,0.00
2023-05-10T14:39:09.555Z,0.00
2023-05-10T14:40:08.550Z,0.00
2023-05-10T14:41:10.527Z,0.00
2023-05-10T14:42:08.561Z,0.00
2023-05-10T14:43:09.530Z,0.00
2023-05-10T14:44:08.533Z,0.00
2023-05-10T14:45:08.543Z,0.00
2023-05-10T14:46:09.550Z,0.00
2023-05-10T14:47:11.878Z,0.00
2023-05-10T14:48:09.500Z,0.00
2023-05-10T14:49:09.497Z,0.00
2023-05-10T14:50:08.485Z,0.00
2023-05-10T14:51:08.484Z,0.00
2023-05-10T14:52:08.494Z,0.00
2023-05-10T14:53:09.475Z,0.00
2023-05-10T14:54:08.440Z,0.00
2023-05-10T14:55:08.454Z,19.67
2023-05-10T14:56:09.426Z,31.47
2023-05-10T14:57:08.419Z,32.59
2023-05-10T14:58:08.417Z,53.37
2023-05-10T14:59:09.402Z,53.86
2023-05-10T15:00:09.397Z,37.38
2023-05-10T15:01:09.393Z,25.00
2023-05-10T15:02:09.429Z,23.57
2023-05-10T15:03:09.449Z,30.83
2023-05-10T15:04:08.363Z,47.33
2023-05-10T15:05:08.357Z,54.57
2023-05-10T15:06:08.372Z,55.24
2023-05-10T15:07:08.338Z,53.03
2023-05-10T15:08:09.327Z,38.78
2023-05-10T15:09:08.354Z,29.21
2023-05-10T15:10:08.367Z,35.63
2023-05-10T15:11:09.325Z,36.62
2023-05-10T15:12:08.309Z,47.21
2023-05-10T15:13:08.292Z,46.78
2023-05-10T15:14:08.274Z,45.13
2023-05-10T15:15:09.344Z,56.51
2023-05-10T15:16:09.572Z,63.79
2023-05-10T15:17:09.429Z,53.36
2023-05-10T15:18:09.609Z,59.97
2023-05-10T15:19:08.755Z,79.57
2023-05-10T15:20:08.620Z,95.68
2023-05-10T15:21:09.705Z,109.49
2023-05-10T15:22:08.699Z,123.65
2023-05-10T15:23:08.724Z,134.82
2023-05-10T15:24:09.808Z,142.74
2023-05-10T15:25:09.878Z,146.77
2023-05-10T15:26:08.911Z,142.98
2023-05-10T15:27:08.826Z,152.28
2023-05-10T15:28:08.849Z,158.35
2023-05-10T15:29:08.921Z,158.24
2023-05-10T16:41:05.938Z,25.00
2023-05-10T16:42:06.775Z,25.00
